Time;durP1;ratioP1;P1;durP2;ratioP2;P2;SDS_P1;SDS_P2;PMS_P1;PMS_P2;Temp;Humidity;BMP_temperature;BMP_pressure;BME280_temperature;BME280_humidity;BME280_pressure;Samples;Min_cycle;Max_cycle;Signal;HPM_P1;HPM_P2
2024/01/12 00:02:13;;;;;;;63.70;27.63;;;-1.60;90.60;;;;;;5024145;28;20480;-64
2024/01/12 00:04:40;;;;;;;67.13;29.07;;;-1.60;90.70;;;;;;5025316;28;20847;-64
2024/01/12 00:07:07;;;;;;;60.03;29.60;;;-1.60;90.80;;;;;;5025666;28;20857;-66
2024/01/12 00:09:34;;;;;;;53.90;25.57;;;-1.60;91.10;;;;;;5022760;28;20599;-63
2024/01/12 00:12:02;;;;;;;62.73;25.63;;;-1.60;91.30;;;;;;5017324;28;20484;-64
2024/01/12 00:14:29;;;;;;;59.13;25.63;;;-1.60;91.20;;;;;;5015541;28;21056;-66
2024/01/12 00:16:56;;;;;;;47.60;23.73;;;-1.60;91.00;;;;;;5019326;28;20480;-66
2024/01/12 00:19:23;;;;;;;53.07;25.00;;;-1.60;90.90;;;;;;5023082;28;20493;-66
2024/01/12 00:21:52;;;;;;;45.77;23.40;;;-1.70;90.90;;;;;;5018931;28;20546;-66
2024/01/12 00:24:19;;;;;;;43.83;22.50;;;-1.70;90.90;;;;;;5026541;28;20476;-66
2024/01/12 00:26:46;;;;;;;57.00;24.30;;;-1.70;90.60;;;;;;5041109;28;20540;-66
2024/01/12 00:29:14;;;;;;;59.30;21.53;;;-1.70;90.50;;;;;;5020235;28;20554;-66
2024/01/12 00:31:41;;;;;;;36.73;19.90;;;-1.70;90.50;;;;;;5027016;28;20535;-66
2024/01/12 00:34:08;;;;;;;39.57;19.03;;;-1.80;90.40;;;;;;5020004;28;20472;-66
2024/01/12 00:36:35;;;;;;;55.50;24.07;;;-1.80;90.40;;;;;;5028074;28;20520;-67
2024/01/12 00:39:03;;;;;;;55.70;26.00;;;-1.80;90.60;;;;;;5021918;28;20496;-66
2024/01/12 00:41:30;;;;;;;66.10;25.27;;;-1.80;90.60;;;;;;5028607;28;20485;-66
2024/01/12 00:43:57;;;;;;;50.40;21.13;;;-1.90;90.50;;;;;;5020472;28;20484;-66
2024/01/12 00:46:25;;;;;;;45.67;21.03;;;-1.90;90.50;;;;;;5021144;28;20761;-66
2024/01/12 00:48:52;;;;;;;54.93;23.10;;;-1.90;90.50;;;;;;5018827;28;20489;-66
2024/01/12 00:51:19;;;;;;;40.73;20.60;;;-2.00;90.30;;;;;;5029102;28;20483;-66
2024/01/12 00:53:45;;;;;;;40.70;21.10;;;-2.20;90.40;;;;;;5015871;28;20484;-66
2024/01/12 00:56:12;;;;;;;40.80;20.87;;;-2.50;91.20;;;;;;5021511;28;20538;-67
2024/01/12 00:58:39;;;;;;;38.23;20.50;;;-2.60;91.50;;;;;;5002244;28;20468;-66
2024/01/12 01:01:06;;;;;;;44.33;22.27;;;-2.70;91.70;;;;;;5037223;28;20479;-66
2024/01/12 01:03:35;;;;;;;49.60;19.83;;;-2.70;91.90;;;;;;5022237;28;20839;-66
2024/01/12 01:06:02;;;;;;;41.90;19.67;;;-2.60;91.60;;;;;;5018970;28;20876;-65
2024/01/12 01:08:28;;;;;;;65.10;21.87;;;-2.70;91.80;;;;;;5021754;28;20476;-66
2024/01/12 01:10:55;;;;;;;44.03;21.00;;;-2.70;92.10;;;;;;5019223;28;20830;-66
2024/01/12 01:13:22;;;;;;;43.90;20.47;;;-2.80;92.10;;;;;;5022615;28;20476;-66
2024/01/12 01:15:49;;;;;;;48.77;20.43;;;-2.70;92.10;;;;;;5022511;28;20999;-66
2024/01/12 01:18:17;;;;;;;40.67;20.47;;;-2.80;91.70;;;;;;5025636;28;20468;-66
2024/01/12 01:20:45;;;;;;;39.20;19.73;;;-2.90;91.90;;;;;;5028490;28;20475;-66
2024/01/12 01:23:12;;;;;;;30.70;17.43;;;-2.90;92.20;;;;;;5027286;28;20537;-64
2024/01/12 01:25:39;;;;;;;38.73;18.30;;;-3.00;92.40;;;;;;5023903;28;20476;-64
2024/01/12 01:28:06;;;;;;;39.33;19.67;;;-2.90;92.60;;;;;;5024286;28;20485;-64
2024/01/12 01:30:33;;;;;;;51.57;21.80;;;-2.80;92.80;;;;;;5030848;28;20484;-64
2024/01/12 01:33:00;;;;;;;38.90;19.83;;;-2.70;92.60;;;;;;5026500;28;20476;-64
2024/01/12 01:35:27;;;;;;;36.47;19.33;;;-2.70;92.30;;;;;;5022689;28;20551;-64
2024/01/12 01:37:55;;;;;;;47.30;19.27;;;-2.50;92.00;;;;;;5033993;28;20473;-64
2024/01/12 01:40:22;;;;;;;41.00;19.37;;;-2.50;92.00;;;;;;5025248;28;20496;-64
2024/01/12 01:42:50;;;;;;;52.77;20.83;;;-2.40;91.80;;;;;;5024519;28;20480;-66
2024/01/12 01:45:17;;;;;;;32.60;17.43;;;-2.40;91.60;;;;;;5027243;28;20476;-67
2024/01/12 01:47:45;;;;;;;35.63;17.80;;;-2.40;91.60;;;;;;5025176;28;20535;-67
2024/01/12 01:50:14;;;;;;;45.13;20.67;;;-2.30;91.50;;;;;;5023585;28;20480;-66
2024/01/12 01:52:42;;;;;;;37.53;19.57;;;-2.30;91.40;;;;;;5021933;28;20491;-67
2024/01/12 01:55:14;;;;;;;47.30;23.10;;;-2.30;91.40;;;;;;5018227;28;20466;-66
2024/01/12 01:57:42;;;;;;;48.83;21.40;;;-2.30;91.30;;;;;;5011946;28;20487;-66
2024/01/12 02:00:10;;;;;;;38.93;20.77;;;-2.50;90.70;;;;;;5037254;28;20532;-67
2024/01/12 02:02:38;;;;;;;42.00;20.43;;;-2.60;90.80;;;;;;5026736;28;20539;-66
2024/01/12 02:05:08;;;;;;;34.30;19.30;;;-2.60;91.00;;;;;;5027268;28;20484;-66
2024/01/12 02:07:35;;;;;;;38.43;17.57;;;-2.60;91.00;;;;;;5031246;28;20485;-66
2024/01/12 02:10:03;;;;;;;34.47;17.47;;;-2.70;91.00;;;;;;5026418;28;20477;-66
2024/01/12 02:12:31;;;;;;;55.40;21.60;;;-2.60;91.00;;;;;;5022839;28;20546;-66
2024/01/12 02:14:58;;;;;;;36.10;17.37;;;-2.60;91.10;;;;;;5020727;28;20894;-66
2024/01/12 02:17:25;;;;;;;77.63;23.93;;;-2.60;91.10;;;;;;5022708;28;20497;-66
2024/01/12 02:19:58;;;;;;;43.53;21.47;;;-2.60;91.00;;;;;;5017926;28;20558;-66
2024/01/12 02:22:27;;;;;;;39.97;20.20;;;-2.60;91.00;;;;;;5022445;28;20496;-66
2024/01/12 02:24:54;;;;;;;35.30;17.77;;;-2.60;91.00;;;;;;5039631;28;20491;-66
2024/01/12 02:27:22;;;;;;;43.20;19.30;;;-2.60;90.80;;;;;;5021552;28;21028;-66
2024/01/12 02:29:50;;;;;;;33.27;20.37;;;-2.70;90.60;;;;;;5039174;28;20483;-66
2024/01/12 02:32:17;;;;;;;46.47;20.07;;;-3.00;91.50;;;;;;5027487;28;21238;-67
2024/01/12 02:34:44;;;;;;;37.53;20.40;;;-3.00;91.50;;;;;;5025755;28;21535;-64
2024/01/12 02:37:11;;;;;;;47.70;19.30;;;-3.00;91.40;;;;;;5032079;28;20904;-64
2024/01/12 02:39:39;;;;;;;42.70;20.20;;;-2.90;91.40;;;;;;5019000;28;20484;-64
2024/01/12 02:42:06;;;;;;;37.73;18.20;;;-2.80;91.40;;;;;;5051764;28;20660;-64
2024/01/12 02:44:33;;;;;;;34.30;19.37;;;-2.80;91.30;;;;;;5026588;28;21084;-64
2024/01/12 02:47:00;;;;;;;38.43;17.90;;;-2.80;91.50;;;;;;5020461;28;20580;-64
2024/01/12 02:49:27;;;;;;;45.77;20.00;;;-2.70;91.70;;;;;;5028105;28;21075;-64
2024/01/12 02:51:54;;;;;;;64.83;20.67;;;-2.70;91.50;;;;;;5039105;28;20870;-64
2024/01/12 02:54:21;;;;;;;47.37;21.30;;;-2.70;91.50;;;;;;5022077;28;20890;-64
2024/01/12 02:56:49;;;;;;;50.57;23.33;;;-2.60;91.50;;;;;;5022456;28;20562;-64
2024/01/12 02:59:16;;;;;;;59.47;25.93;;;-2.70;91.10;;;;;;5010936;28;20906;-64
2024/01/12 03:01:43;;;;;;;59.63;26.17;;;-2.60;91.10;;;;;;5014024;28;20485;-64
2024/01/12 03:04:10;;;;;;;45.90;19.63;;;-2.80;90.60;;;;;;5006839;28;21223;-65
2024/01/12 03:06:36;;;;;;;45.37;18.47;;;-2.80;90.90;;;;;;5046502;28;20499;-64
2024/01/12 03:09:04;;;;;;;33.73;18.50;;;-2.80;91.00;;;;;;5010582;28;20483;-64
2024/01/12 03:11:30;;;;;;;35.73;17.00;;;-2.80;90.90;;;;;;5049510;28;20986;-64
2024/01/12 03:13:59;;;;;;;33.53;19.50;;;-2.80;90.90;;;;;;5019459;28;20511;-64
2024/01/12 03:16:27;;;;;;;41.27;18.47;;;-2.80;90.90;;;;;;5016448;28;20562;-63
2024/01/12 03:18:54;;;;;;;45.20;18.03;;;;;;;;;;5038685;28;20913;-64
2024/01/12 03:21:21;;;;;;;46.43;19.23;;;-2.80;90.80;;;;;;5029348;28;20488;-64
2024/01/12 03:23:48;;;;;;;35.80;17.53;;;-2.80;90.80;;;;;;5025585;28;21060;-63
2024/01/12 03:26:16;;;;;;;75.93;20.80;;;-2.80;90.70;;;;;;5015407;28;20515;-64
2024/01/12 03:28:43;;;;;;;40.30;21.60;;;-2.90;90.80;;;;;;5034743;28;20879;-64
2024/01/12 03:31:11;;;;;;;43.57;18.17;;;-2.90;91.00;;;;;;5032439;28;20491;-64
2024/01/12 03:33:38;;;;;;;35.27;17.70;;;-2.90;91.10;;;;;;5019806;28;20481;-64
2024/01/12 03:36:07;;;;;;;46.03;20.37;;;-3.00;90.60;;;;;;5021616;28;20480;-64
2024/01/12 03:38:34;;;;;;;32.03;17.07;;;-3.20;90.70;;;;;;5001519;28;20879;-64
2024/01/12 03:41:04;;;;;;;54.33;21.30;;;-3.60;91.20;;;;;;5020192;28;20895;-64
2024/01/12 03:43:31;;;;;;;40.90;19.73;;;-3.70;91.60;;;;;;5021579;28;20537;-66
2024/01/12 03:45:58;;;;;;;31.73;17.77;;;-3.70;91.80;;;;;;5026407;28;20485;-64
2024/01/12 03:48:26;;;;;;;39.93;17.07;;;-3.50;92.20;;;;;;5024050;28;21856;-64
2024/01/12 03:50:53;;;;;;;38.27;17.10;;;-3.40;92.40;;;;;;5024567;28;20480;-64
2024/01/12 03:53:20;;;;;;;40.07;18.30;;;-3.20;92.50;;;;;;5026618;28;20477;-64
2024/01/12 03:55:47;;;;;;;33.43;18.50;;;-3.10;92.70;;;;;;5021950;28;20564;-64
2024/01/12 03:58:14;;;;;;;38.93;18.90;;;-3.00;92.40;;;;;;5036026;28;20574;-64
2024/01/12 04:00:41;;;;;;;73.00;21.23;;;-3.10;92.10;;;;;;5023961;28;20476;-64
2024/01/12 04:03:08;;;;;;;32.90;18.90;;;-3.20;92.10;;;;;;5027973;28;20540;-64
2024/01/12 04:05:36;;;;;;;42.43;18.53;;;-3.20;92.60;;;;;;5029962;28;21007;-66
2024/01/12 04:08:03;;;;;;;35.10;17.20;;;-3.10;92.70;;;;;;5005152;28;20599;-67
2024/01/12 04:10:30;;;;;;;35.17;18.00;;;-3.00;92.70;;;;;;5037272;28;20484;-66
2024/01/12 04:12:57;;;;;;;38.50;18.63;;;-2.90;92.80;;;;;;5015707;28;20484;-66
2024/01/12 04:15:24;;;;;;;39.03;20.37;;;-2.80;92.90;;;;;;5023895;28;20515;-65
2024/01/12 04:17:50;;;;;;;45.10;23.30;;;-2.80;93.10;;;;;;5023090;28;20525;-65
2024/01/12 04:20:17;;;;;;;41.20;19.50;;;-2.80;93.50;;;;;;5025722;28;20484;-66
2024/01/12 04:22:46;;;;;;;37.70;18.50;;;-2.70;93.60;;;;;;5017352;28;20485;-66
2024/01/12 04:25:12;;;;;;;37.30;21.50;;;-2.60;93.60;;;;;;5022605;28;20481;-66
2024/01/12 04:27:40;;;;;;;39.10;18.37;;;;;;;;;;5024451;28;20488;-66
2024/01/12 04:30:09;;;;;;;44.60;20.17;;;-2.70;93.80;;;;;;5029362;28;20541;-67
2024/01/12 04:32:35;;;;;;;38.30;19.60;;;-2.60;94.20;;;;;;5014266;28;21081;-66
2024/01/12 04:35:02;;;;;;;60.03;21.30;;;-2.60;93.90;;;;;;5040453;28;20476;-66
2024/01/12 04:37:29;;;;;;;37.70;19.70;;;-2.60;94.00;;;;;;5024226;28;20487;-66
2024/01/12 04:39:57;;;;;;;44.93;20.30;;;-2.60;94.30;;;;;;5022243;28;20887;-66
2024/01/12 04:42:24;;;;;;;57.73;21.80;;;-2.60;94.40;;;;;;5011124;28;20531;-67
2024/01/12 04:44:51;;;;;;;58.83;22.50;;;-2.40;94.60;;;;;;5024493;28;20486;-66
2024/01/12 04:47:18;;;;;;;39.40;19.80;;;-2.30;94.40;;;;;;5016468;28;20555;-66
2024/01/12 04:49:45;;;;;;;44.10;21.60;;;-2.10;94.10;;;;;;5026569;28;20808;-65
2024/01/12 04:52:12;;;;;;;41.30;19.80;;;-2.10;94.20;;;;;;5027610;28;20533;-65
2024/01/12 04:54:39;;;;;;;49.03;22.00;;;-2.00;94.20;;;;;;5025269;28;20484;-66
2024/01/12 04:57:06;;;;;;;42.73;20.87;;;-1.80;94.20;;;;;;5031308;28;20539;-65
2024/01/12 04:59:33;;;;;;;42.87;22.00;;;-1.70;94.10;;;;;;5029755;28;20856;-66
2024/01/12 05:02:00;;;;;;;39.20;21.27;;;-1.70;94.10;;;;;;5037896;28;20492;-66
2024/01/12 05:04:27;;;;;;;66.33;22.33;;;-1.50;94.00;;;;;;5021867;28;20504;-66
2024/01/12 05:06:54;;;;;;;45.40;21.10;;;-1.50;94.00;;;;;;5026903;28;20484;-66
2024/01/12 05:09:20;;;;;;;89.13;21.77;;;-1.40;94.10;;;;;;5024266;28;20546;-66
2024/01/12 05:11:48;;;;;;;42.67;20.60;;;-1.30;94.10;;;;;;5020635;28;20549;-66
2024/01/12 05:14:16;;;;;;;44.80;22.17;;;-1.30;94.10;;;;;;5042839;28;20539;-65
2024/01/12 05:16:43;;;;;;;59.33;23.80;;;-1.20;94.20;;;;;;5020833;28;20480;-64
2024/01/12 05:19:10;;;;;;;55.80;22.87;;;-1.10;94.50;;;;;;5033471;28;20892;-64
2024/01/12 05:21:37;;;;;;;48.90;21.67;;;-1.10;94.60;;;;;;5026068;28;20492;-64
2024/01/12 05:24:04;;;;;;;44.93;25.37;;;-1.00;95.00;;;;;;5038082;28;20618;-64
2024/01/12 05:26:32;;;;;;;40.80;21.17;;;-0.90;95.00;;;;;;5043158;28;20471;-63
2024/01/12 05:28:59;;;;;;;49.07;22.90;;;-0.90;95.10;;;;;;5047381;28;21148;-64
2024/01/12 05:31:27;;;;;;;46.90;23.90;;;-0.80;95.30;;;;;;5025697;28;20487;-63
2024/01/12 05:33:54;;;;;;;51.27;24.17;;;-0.80;95.30;;;;;;5022705;28;20481;-64
2024/01/12 05:36:21;;;;;;;43.20;24.93;;;-0.70;95.40;;;;;;5024582;28;20568;-64
2024/01/12 05:38:48;;;;;;;51.60;21.43;;;-0.70;95.70;;;;;;5020054;28;20538;-64
2024/01/12 05:41:15;;;;;;;44.07;21.40;;;-0.70;95.70;;;;;;5038931;28;20537;-64
2024/01/12 05:43:42;;;;;;;69.83;24.07;;;-0.60;95.90;;;;;;5024558;28;20534;-63
2024/01/12 05:46:09;;;;;;;62.22;30.67;;;-0.60;96.00;;;;;;5014507;28;20839;-63
2024/01/12 05:48:37;;;;;;;47.23;23.93;;;-0.50;96.30;;;;;;5023156;28;20295;-64
2024/01/12 05:51:05;;;;;;;48.50;22.40;;;-0.50;96.30;;;;;;5019017;28;20526;-64
2024/01/12 05:53:32;;;;;;;35.87;22.10;;;;;;;;;;5014430;28;20478;-63
2024/01/12 05:55:59;;;;;;;49.07;24.67;;;-0.40;96.40;;;;;;5028985;28;20512;-64
2024/01/12 05:58:26;;;;;;;52.17;23.27;;;-0.30;96.40;;;;;;5007197;28;20903;-64
2024/01/12 06:00:53;;;;;;;58.37;22.90;;;-0.30;96.60;;;;;;5025791;28;20894;-64
2024/01/12 06:03:19;;;;;;;44.53;22.60;;;-0.30;96.50;;;;;;5023873;28;20936;-64
2024/01/12 06:05:50;;;;;;;43.27;21.13;;;-0.20;96.60;;;;;;5029081;28;20549;-64
2024/01/12 06:08:17;;;;;;;60.13;24.80;;;-0.10;96.70;;;;;;5023037;28;21074;-64
2024/01/12 06:10:44;;;;;;;40.00;21.87;;;-0.20;96.70;;;;;;5027024;28;20848;-64
2024/01/12 06:13:10;;;;;;;39.97;20.07;;;-0.10;96.80;;;;;;5017205;28;20550;-64
2024/01/12 06:15:37;;;;;;;37.37;20.87;;;0.00;96.80;;;;;;5028585;28;20491;-63
2024/01/12 06:18:05;;;;;;;64.80;21.77;;;0.00;96.80;;;;;;5040689;28;20518;-63
2024/01/12 06:20:32;;;;;;;50.17;27.83;;;0.10;97.10;;;;;;5029733;28;20499;-64
2024/01/12 06:23:00;;;;;;;51.57;24.57;;;0.10;97.10;;;;;;5022864;28;20483;-63
2024/01/12 06:25:29;;;;;;;54.63;22.40;;;0.20;96.90;;;;;;5019780;28;20492;-64
2024/01/12 06:27:56;;;;;;;43.27;22.97;;;0.20;96.90;;;;;;5025464;28;20857;-63
2024/01/12 06:30:23;;;;;;;38.90;21.90;;;0.30;96.90;;;;;;5022522;28;21176;-63
2024/01/12 06:32:49;;;;;;;55.63;21.93;;;0.30;97.00;;;;;;5020009;28;20488;-64
2024/01/12 06:35:16;;;;;;;43.70;22.43;;;0.30;97.00;;;;;;5018351;28;20483;-63
2024/01/12 06:37:43;;;;;;;57.03;22.50;;;0.30;97.00;;;;;;5027909;28;20522;-64
2024/01/12 06:40:12;;;;;;;53.83;24.07;;;0.40;97.10;;;;;;5037393;28;20478;-63
2024/01/12 06:42:41;;;;;;;41.40;21.40;;;0.40;97.10;;;;;;5022902;28;21038;-63
2024/01/12 06:45:10;;;;;;;55.17;24.93;;;0.40;97.10;;;;;;5019989;28;20923;-64
2024/01/12 06:47:37;;;;;;;49.80;24.50;;;0.50;97.10;;;;;;5025813;28;21292;-63
2024/01/12 06:50:05;;;;;;;45.27;22.80;;;0.50;97.10;;;;;;5026264;28;20484;-64
2024/01/12 06:52:32;;;;;;;80.37;21.13;;;0.50;97.50;;;;;;5025795;28;20478;-64
2024/01/12 06:54:59;;;;;;;50.27;23.70;;;0.50;97.60;;;;;;5020020;28;20489;-64
2024/01/12 06:57:27;;;;;;;40.13;20.83;;;0.60;97.60;;;;;;5020825;28;20546;-64
2024/01/12 06:59:54;;;;;;;48.17;21.70;;;0.60;97.70;;;;;;5004835;28;20477;-63
2024/01/12 07:02:21;;;;;;;29.37;15.67;;;0.60;97.60;;;;;;5038386;28;20755;-63
2024/01/12 07:04:48;;;;;;;33.20;17.83;;;0.60;97.80;;;;;;5021789;28;20482;-64
2024/01/12 07:07:15;;;;;;;48.33;19.23;;;0.60;97.90;;;;;;5024305;28;20816;-64
2024/01/12 07:09:44;;;;;;;29.77;16.30;;;0.60;97.90;;;;;;5023619;28;20533;-64
2024/01/12 07:12:12;;;;;;;33.63;17.33;;;0.60;98.20;;;;;;5015122;28;20486;-63
2024/01/12 07:14:41;;;;;;;40.83;18.47;;;0.70;98.30;;;;;;5020888;28;20528;-64
2024/01/12 07:17:07;;;;;;;33.07;15.10;;;0.70;98.10;;;;;;5033904;28;20498;-64
2024/01/12 07:19:34;;;;;;;33.93;16.93;;;0.70;98.30;;;;;;5018142;28;20854;-64
2024/01/12 07:22:01;;;;;;;38.13;16.10;;;0.70;98.20;;;;;;5034809;28;20849;-64
2024/01/12 07:24:28;;;;;;;27.67;13.93;;;0.70;98.20;;;;;;5024154;28;21079;-64
2024/01/12 07:26:56;;;;;;;47.70;14.60;;;0.70;98.30;;;;;;5038064;28;20525;-63
2024/01/12 07:29:23;;;;;;;42.97;19.67;;;0.80;98.40;;;;;;5022563;28;20570;-63
2024/01/12 07:31:51;;;;;;;34.90;19.87;;;0.90;98.30;;;;;;5021874;28;20487;-63
2024/01/12 07:34:18;;;;;;;26.40;15.87;;;1.00;98.00;;;;;;5028700;28;20473;-63
2024/01/12 07:36:45;;;;;;;27.20;13.60;;;0.90;97.90;;;;;;5011986;28;20538;-64
2024/01/12 07:39:12;;;;;;;27.13;12.80;;;1.00;98.10;;;;;;5015777;28;20480;-63
2024/01/12 07:41:39;;;;;;;25.23;11.00;;;0.90;97.90;;;;;;5020748;28;20480;-64
2024/01/12 07:44:07;;;;;;;33.17;16.97;;;1.00;98.10;;;;;;5009341;28;20534;-64
2024/01/12 07:46:34;;;;;;;36.83;13.77;;;0.90;97.90;;;;;;5022918;28;20994;-64
2024/01/12 07:49:02;;;;;;;30.27;11.63;;;0.90;98.10;;;;;;5040273;28;20859;-63
2024/01/12 07:51:29;;;;;;;24.93;11.87;;;0.90;98.10;;;;;;5016003;28;20574;-63
2024/01/12 07:53:56;;;;;;;23.63;14.60;;;0.90;98.20;;;;;;5023475;28;20888;-64
2024/01/12 07:56:23;;;;;;;19.80;9.70;;;0.90;98.10;;;;;;5021770;28;20492;-63
2024/01/12 07:58:50;;;;;;;34.40;13.97;;;0.90;98.20;;;;;;4998490;28;21164;-63
2024/01/12 08:01:17;;;;;;;45.73;13.07;;;0.90;98.10;;;;;;5044201;28;20658;-64
2024/01/12 08:03:45;;;;;;;24.43;12.07;;;0.90;98.10;;;;;;5019777;28;20482;-63
2024/01/12 08:06:14;;;;;;;34.93;16.47;;;1.00;98.30;;;;;;5021598;28;20578;-63
2024/01/12 08:08:41;;;;;;;41.33;16.83;;;1.00;98.30;;;;;;5021047;28;21004;-63
2024/01/12 08:11:07;;;;;;;27.10;13.10;;;1.00;98.20;;;;;;5024096;28;20480;-63
2024/01/12 08:13:35;;;;;;;25.87;14.07;;;0.90;98.10;;;;;;5006316;28;20889;-64
2024/01/12 08:16:01;;;;;;;45.67;13.73;;;1.00;98.30;;;;;;5036593;28;20536;-63
2024/01/12 08:18:28;;;;;;;28.60;14.97;;;1.00;98.30;;;;;;5009916;28;20491;-64
2024/01/12 08:20:56;;;;;;;32.93;16.37;;;1.00;98.40;;;;;;5023177;28;20481;-63
2024/01/12 08:23:24;;;;;;;24.03;8.70;;;1.10;98.30;;;;;;5011253;28;20488;-63
2024/01/12 08:25:51;;;;;;;29.20;13.80;;;1.00;98.40;;;;;;5038327;28;20899;-66
2024/01/12 08:28:18;;;;;;;25.90;13.90;;;1.00;98.50;;;;;;5027731;28;20490;-64
2024/01/12 08:30:45;;;;;;;27.37;13.00;;;1.10;98.40;;;;;;5028536;28;20487;-63
2024/01/12 08:33:12;;;;;;;29.33;14.00;;;1.10;98.50;;;;;;5028734;28;20889;-63
2024/01/12 08:35:39;;;;;;;51.47;16.40;;;1.10;98.60;;;;;;5023732;28;20515;-64
2024/01/12 08:38:06;;;;;;;22.83;10.13;;;1.00;98.40;;;;;;5030759;28;21375;-63
2024/01/12 08:40:34;;;;;;;30.50;13.10;;;1.00;98.70;;;;;;5026870;28;20977;-63
2024/01/12 08:43:01;;;;;;;41.03;14.90;;;;;;;;;;5026761;28;20472;-63
2024/01/12 08:45:30;;;;;;;24.77;11.90;;;1.00;98.90;;;;;;5024368;28;20480;-64
2024/01/12 08:47:58;;;;;;;16.87;9.27;;;0.90;98.90;;;;;;5031136;28;20498;-64
2024/01/12 08:50:25;;;;;;;27.30;10.30;;;0.90;98.90;;;;;;5049760;28;20478;-63
2024/01/12 08:52:52;;;;;;;23.73;11.43;;;0.90;98.90;;;;;;5038533;28;20483;-63
2024/01/12 08:55:18;;;;;;;25.33;14.97;;;1.00;99.20;;;;;;5027464;28;20540;-63
2024/01/12 08:57:47;;;;;;;44.57;12.90;;;1.00;99.20;;;;;;5026102;28;20489;-63
2024/01/12 09:00:16;;;;;;;21.50;11.33;;;1.00;99.10;;;;;;5023293;28;20493;-64
2024/01/12 09:02:43;;;;;;;29.17;13.40;;;1.00;99.00;;;;;;5023660;28;20472;-63
2024/01/12 09:05:11;;;;;;;22.50;11.77;;;1.10;99.10;;;;;;5023314;28;20498;-63
2024/01/12 09:07:38;;;;;;;23.40;9.80;;;1.10;99.20;;;;;;5041354;28;20926;-63
2024/01/12 09:10:06;;;;;;;35.40;11.37;;;1.10;99.10;;;;;;5027983;28;20492;-63
2024/01/12 09:12:32;;;;;;;25.27;14.07;;;1.10;99.20;;;;;;5028949;28;20563;-63
2024/01/12 09:15:01;;;;;;;36.07;12.97;;;1.20;99.20;;;;;;5026809;28;20558;-64
2024/01/12 09:17:28;;;;;;;22.03;7.83;;;1.20;99.10;;;;;;5028397;28;20484;-63
2024/01/12 09:19:54;;;;;;;23.57;9.57;;;1.20;98.90;;;;;;5028754;28;20530;-63
2024/01/12 09:22:21;;;;;;;22.87;11.50;;;1.20;99.10;;;;;;5024026;28;23197;-63
2024/01/12 09:24:48;;;;;;;46.17;12.27;;;1.20;99.20;;;;;;5030433;28;20519;-64
2024/01/12 09:27:15;;;;;;;12.43;8.07;;;1.20;99.10;;;;;;5025712;28;20484;-63
2024/01/12 09:29:42;;;;;;;28.20;9.37;;;1.20;99.20;;;;;;5023746;28;20542;-63
2024/01/12 09:32:10;;;;;;;25.80;12.60;;;1.20;99.40;;;;;;5022656;28;20530;-62
2024/01/12 09:34:38;;;;;;;26.83;12.97;;;1.30;99.50;;;;;;5020589;28;20908;-63
2024/01/12 09:37:06;;;;;;;20.43;10.67;;;1.20;99.00;;;;;;5039709;28;20820;-63
2024/01/12 09:39:33;;;;;;;16.50;10.23;;;1.20;99.00;;;;;;5028720;28;21490;-63
2024/01/12 09:42:02;;;;;;;17.93;9.40;;;1.20;99.10;;;;;;5023367;28;20477;-63
2024/01/12 09:44:29;;;;;;;45.30;12.27;;;1.20;99.20;;;;;;5048739;28;20562;-63
2024/01/12 09:46:58;;;;;;;11.83;8.40;;;1.30;99.30;;;;;;5042663;28;20556;-64
2024/01/12 09:49:28;;;;;;;25.80;10.90;;;1.30;99.10;;;;;;5048239;28;20946;-63
2024/01/12 09:51:56;;;;;;;30.10;10.73;;;1.30;99.30;;;;;;5046980;28;20491;-63
2024/01/12 09:54:23;;;;;;;28.03;12.07;;;1.30;99.30;;;;;;5033433;28;21030;-63
2024/01/12 09:56:52;;;;;;;22.43;9.87;;;1.40;99.40;;;;;;5042764;28;20483;-64
2024/01/12 09:59:22;;;;;;;27.97;11.77;;;1.40;99.30;;;;;;5042078;28;20803;-62
2024/01/12 10:01:50;;;;;;;24.23;10.50;;;1.40;99.30;;;;;;5043004;28;20541;-63
2024/01/12 10:04:17;;;;;;;27.60;13.23;;;1.50;99.30;;;;;;5045392;28;20466;-63
2024/01/12 10:06:45;;;;;;;27.77;11.60;;;1.50;99.20;;;;;;5044298;28;20523;-63
2024/01/12 10:09:12;;;;;;;23.53;11.60;;;1.60;99.30;;;;;;5041638;28;20525;-64
2024/01/12 10:11:40;;;;;;;24.60;11.80;;;1.60;99.20;;;;;;5053132;28;20479;-64
2024/01/12 10:14:07;;;;;;;30.70;11.70;;;1.70;99.00;;;;;;5043411;28;20510;-63
2024/01/12 10:16:34;;;;;;;23.57;12.67;;;1.80;99.00;;;;;;5042385;28;20487;-64
2024/01/12 10:19:01;;;;;;;37.70;12.00;;;1.80;99.00;;;;;;5047174;28;20534;-63
2024/01/12 10:21:28;;;;;;;22.93;13.83;;;1.90;99.10;;;;;;5067727;28;20527;-63
2024/01/12 10:24:03;;;;;;;23.80;11.93;;;1.80;98.70;;;;;;5065302;28;20524;-64
2024/01/12 10:26:30;;;;;;;32.87;13.63;;;1.90;98.80;;;;;;5068318;28;20493;-64
2024/01/12 10:29:02;;;;;;;30.97;13.00;;;1.90;98.70;;;;;;5070688;28;20475;-63
2024/01/12 10:31:29;;;;;;;23.07;12.17;;;1.90;98.60;;;;;;5060080;28;20895;-63
2024/01/12 10:33:59;;;;;;;27.97;13.00;;;1.90;98.80;;;;;;5075088;28;20825;-63
2024/01/12 10:36:28;;;;;;;21.50;11.00;;;1.90;98.70;;;;;;5069140;28;20503;-63
2024/01/12 10:38:57;;;;;;;20.13;12.20;;;1.90;98.80;;;;;;5073808;28;20535;-63
2024/01/12 10:41:26;;;;;;;23.80;13.33;;;1.90;98.70;;;;;;5073681;28;20491;-63
2024/01/12 10:43:57;;;;;;;20.63;11.03;;;1.90;98.70;;;;;;5062130;28;20566;-63
2024/01/12 10:46:33;;;;;;;36.57;13.40;;;1.90;99.00;;;;;;5060975;28;20569;-64
2024/01/12 10:49:07;;;;;;;20.83;10.00;;;1.90;98.90;;;;;;5074869;28;20471;-63
2024/01/12 10:51:38;;;;;;;18.73;10.07;;;1.90;99.00;;;;;;5067695;28;20466;-64
2024/01/12 10:54:09;;;;;;;22.57;10.43;;;1.90;98.80;;;;;;5073757;28;20479;-64
2024/01/12 10:56:38;;;;;;;20.67;9.90;;;1.90;98.70;;;;;;5068859;28;20532;-64
2024/01/12 10:59:06;;;;;;;32.97;13.30;;;1.90;98.90;;;;;;5054079;28;20487;-64
2024/01/12 11:01:35;;;;;;;21.37;10.77;;;1.90;98.80;;;;;;5067526;28;20466;-64
2024/01/12 11:04:03;;;;;;;19.93;10.40;;;1.90;98.90;;;;;;5038029;28;20547;-63
2024/01/12 11:06:31;;;;;;;16.50;11.20;;;1.90;98.90;;;;;;5074335;28;21037;-64
2024/01/12 11:08:58;;;;;;;22.47;10.40;;;2.00;98.90;;;;;;5048516;28;20516;-66
2024/01/12 11:11:32;;;;;;;17.90;10.50;;;2.00;98.80;;;;;;5062324;28;21013;-66
2024/01/12 11:14:02;;;;;;;44.47;12.53;;;2.00;98.90;;;;;;5066730;28;20548;-66
2024/01/12 11:16:29;;;;;;;23.03;11.63;;;2.00;98.90;;;;;;5069232;28;20482;-65
2024/01/12 11:18:56;;;;;;;30.10;12.67;;;2.00;98.80;;;;;;5062793;28;20475;-66
2024/01/12 11:21:26;;;;;;;28.40;11.00;;;2.00;98.90;;;;;;5069251;28;20482;-66
2024/01/12 11:23:54;;;;;;;25.43;11.80;;;1.90;98.90;;;;;;5057917;28;21299;-66
2024/01/12 11:26:21;;;;;;;19.40;11.63;;;1.90;99.30;;;;;;5034865;28;20488;-66
2024/01/12 11:28:50;;;;;;;29.80;11.60;;;1.90;99.40;;;;;;5068320;28;20487;-66
2024/01/12 11:31:28;;;;;;;23.53;11.97;;;2.00;99.40;;;;;;5072348;28;20479;-66
2024/01/12 11:34:00;;;;;;;14.07;6.70;;;2.00;99.10;;;;;;5064047;28;20529;-66
2024/01/12 11:36:27;;;;;;;26.53;13.53;;;1.90;99.40;;;;;;5068402;28;20555;-66
2024/01/12 11:38:56;;;;;;;25.77;11.50;;;1.90;99.50;;;;;;5075640;28;20482;-66
2024/01/12 11:41:28;;;;;;;25.17;11.40;;;1.90;99.50;;;;;;5065514;28;20991;-66
2024/01/12 11:43:56;;;;;;;17.50;10.77;;;1.90;99.30;;;;;;5062709;28;20527;-65
2024/01/12 11:46:24;;;;;;;31.03;12.37;;;2.00;99.40;;;;;;5044588;28;20492;-66
2024/01/12 11:48:52;;;;;;;25.43;10.97;;;2.10;99.40;;;;;;5023767;28;20501;-66
2024/01/12 11:51:23;;;;;;;21.00;10.33;;;2.20;99.30;;;;;;5021562;28;20883;-65
2024/01/12 11:53:52;;;;;;;34.47;11.73;;;2.10;99.10;;;;;;5021734;28;20546;-66
2024/01/12 11:56:21;;;;;;;30.83;12.87;;;2.20;99.20;;;;;;5023006;28;20477;-66
2024/01/12 11:58:48;;;;;;;23.73;13.60;;;2.30;99.10;;;;;;5022075;28;20488;-67
2024/01/12 12:01:15;;;;;;;23.30;11.77;;;2.30;99.00;;;;;;5019046;28;20480;-66
2024/01/12 12:03:43;;;;;;;28.17;13.70;;;2.40;98.90;;;;;;5020630;28;20527;-66
2024/01/12 12:06:12;;;;;;;25.07;13.43;;;2.40;98.90;;;;;;5021193;28;20578;-66
2024/01/12 12:08:40;;;;;;;25.60;13.27;;;2.40;98.80;;;;;;5047616;28;20462;-66
2024/01/12 12:11:07;;;;;;;30.23;13.50;;;2.50;98.70;;;;;;5018636;28;20495;-66
2024/01/12 12:13:35;;;;;;;25.10;13.47;;;2.50;98.60;;;;;;5025511;28;20480;-66
2024/01/12 12:16:03;;;;;;;47.37;14.50;;;2.50;98.70;;;;;;5023528;28;20472;-66
2024/01/12 12:18:30;;;;;;;28.67;14.50;;;2.60;98.60;;;;;;5023473;28;20488;-66
2024/01/12 12:20:57;;;;;;;21.87;13.17;;;2.60;98.50;;;;;;5025545;28;20888;-66
2024/01/12 12:23:26;;;;;;;22.10;13.07;;;2.50;98.30;;;;;;5018674;28;20853;-66
2024/01/12 12:25:53;;;;;;;26.40;13.17;;;;;;;;;;5022544;28;21092;-66
2024/01/12 12:28:20;;;;;;;22.90;11.97;;;2.40;98.20;;;;;;5023922;28;20480;-66
2024/01/12 12:30:47;;;;;;;21.83;10.83;;;2.40;98.30;;;;;;5022851;28;20549;-66
2024/01/12 12:33:13;;;;;;;18.77;10.37;;;2.40;98.30;;;;;;5023256;28;20538;-67
2024/01/12 12:35:40;;;;;;;21.10;12.03;;;2.30;98.20;;;;;;5019748;28;20509;-66